Latest Coastal Weather Observations for Hogan Island

IDV60701

Issued at 7:52 pm EST Monday 4 May 2026 (issued every 10 minutes, with the page automatically refreshed every 10 minutes)

About coastal observations | Map of coastal stations | Coastal observations for VIC | Marine services | Other Formats
Station Details ID: 200838 Name: HOGAN ISLAND Lat: -39.22 Lon: 146.98 Height: 116.0 m
Data from the previous 72 hours. | See also: Recent months at Hogan Island
Date/Time
EST
Wind Sea
Height
m
Swell Vis
km
Cloud Weather Temp
°C
Press
MSL
hPa
Rain since
9am
mm
Dir  Spd
kts
Gust
kts
Height
m
Period
s
Dir
04/07:30pm NNW 15 22 - - - - - - - 16.7 1009.8 0.0
04/07:00pm NNW 17 21 - - - - - - - 16.7 1009.7 0.0
04/06:30pm NNW 16 19 - - - - - - - 16.8 1009.6 0.0
04/06:00pm NNW 11 15 - - - - - - - 16.3 1009.5 0.0
04/05:30pm NNW 12 14 - - - - - - - 16.1 1009.4 0.0
04/05:00pm NW 15 18 - - - - - - - 16.1 1009.2 0.0
04/04:30pm NNW 15 19 - - - - - - - 16.7 1009.1 0.0
04/04:00pm NNW 11 17 - - - - - - - 16.8 1009.1 0.0
04/03:30pm N 15 18 - - - - - - - 17.3 1009.0 0.0
04/03:00pm N 15 19 - - - - - - - 17.9 1009.1 0.0
04/02:30pm N 16 21 - - - - - - - 18.0 1009.0 0.0
04/02:00pm NNE 15 19 - - - - - - - 18.0 1009.3 0.0
04/01:30pm NNE 15 19 - - - - - - - 18.3 1009.6 0.0
04/01:00pm N 16 21 - - - - - - - 18.4 1009.8 0.0
04/12:30pm N 16 20 - - - - - - - 18.0 1010.2 0.0
04/12:00pm N 17 21 - - - - - - - 17.2 1010.9 0.0
04/11:30am N 17 22 - - - - - - - 17.1 1011.4 0.0
04/11:00am N 17 20 - - - - - - - 17.3 1011.6 0.0
04/10:30am N 15 19 - - - - - - - 17.1 1011.7 0.0
04/10:00am N 15 19 - - - - - - - 16.4 1011.8 0.0
04/09:30am N 12 16 - - - - - - - 16.3 1012.0 0.0
04/09:00am NNW 10 15 - - - - - - - 16.0 1012.3 17.8
04/08:30am N 11 15 - - - - - - - 15.6 1012.3 17.8
04/08:00am N 11 13 - - - - - - - 14.9 1012.2 17.8
04/07:30am N 12 14 - - - - - - - 14.4 1011.6 17.8
04/07:00am N 9 11 - - - - - - - 13.6 1011.3 17.8
04/06:30am NNW 11 15 - - - - - - - 14.4 1011.6 17.8
04/06:00am NW 13 18 - - - - - - - 14.6 1011.4 17.8
04/05:30am NW 13 16 - - - - - - - 14.6 1011.3 17.8
04/05:00am NW 17 20 - - - - - - - 14.9 1011.3 17.8
04/04:30am NW 16 19 - - - - - - - 14.8 1011.2 17.8
04/04:00am NW 19 21 - - - - - - - 14.8 1011.0 17.8
04/03:30am NW 18 21 - - - - - - - 15.0 1011.2 17.8
04/03:00am WNW 19 22 - - - - - - - 15.0 1011.3 17.8
04/02:30am WNW 21 23 - - - - - - - 15.0 1011.4 17.8
04/02:00am NW 16 21 - - - - - - - 15.1 1011.8 17.8
04/01:30am NW 16 21 - - - - - - - 14.9 1012.2 17.8
04/01:00am NW 13 17 - - - - - - - 15.0 1012.0 17.8
04/12:30am NW 15 18 - - - - - - - 15.1 1012.4 17.8
04/12:00am NW 14 19 - - - - - - - 15.1 1012.4 17.8
 
Date/Time
EST
Wind Sea
Height
m
Swell Vis
km
Cloud Weather Temp
°C
Press
MSL
hPa
Rain since
9am
mm
Dir  Spd
kts
Gust
kts
Height
m
Period
s
Dir
03/11:30pm NNW 9 11 - - - - - - - 14.9 1012.1 17.8
03/11:00pm NW 8 9 - - - - - - - 14.5 1012.0 17.8
03/10:30pm N 5 6 - - - - - - - 14.6 1012.4 17.8
03/10:00pm NW 10 13 - - - - - - - 14.3 1012.5 17.8
03/09:30pm NW 10 13 - - - - - - - 14.1 1012.3 17.8
03/09:00pm N 7 9 - - - - - - Recent precip. 13.1 1012.1 17.8
03/08:30pm NNW 13 20 - - - - - - - 13.6 1012.0 17.6
03/08:00pm WNW 16 19 - - - - - - - 14.4 1011.8 13.8
03/07:30pm W 17 21 - - - - - - - 14.1 1011.5 11.6
03/07:00pm W 15 21 - - - - - - - 14.4 1011.3 5.8
03/06:30pm NE 14 19 - - - - - - - 16.4 1010.3 3.8
03/06:00pm NE 15 17 - - - - - - - 16.2 1010.3 3.8
03/05:30pm NE 16 20 - - - - - - - 16.2 1010.2 3.8
03/05:00pm ENE 14 17 - - - - - - - 16.1 1010.0 3.8
03/04:30pm ENE 14 16 - - - - - - - 16.2 1010.2 3.8
03/04:00pm NE 14 17 - - - - - - - 16.7 1010.4 3.8
03/03:30pm NE 13 16 - - - - - - - 16.1 1011.1 3.8
03/03:00pm NE 7 9 - - - - - - Recent precip. 16.0 1011.1 3.6
03/02:30pm N 11 15 - - - - - - - 16.5 1011.7 3.4
03/02:00pm NNW 13 17 - - - - - - - 16.1 1012.5 2.8
03/01:33pm N 15 25 - - - - - - - 16.5 1012.6 1.0
03/01:30pm N 18 25 - - - - - - - 16.7 1012.5 0.8
03/01:00pm NNE 16 18 - - - - - - - 16.9 1011.5 0.4
03/12:30pm NNE 16 20 - - - - - - - 16.8 1011.5 0.4
03/12:00pm NNE 18 22 - - - - - - - 17.1 1012.3 0.4
03/11:30am NE 14 19 - - - - - - - 16.7 1012.4 0.4
03/11:00am NNE 15 19 - - - - - - - 16.8 1012.6 0.4
03/10:30am NNE 17 20 - - - - - - - 16.9 1012.9 0.4
03/10:00am N 20 24 - - - - - - - 16.8 1013.1 0.2
03/09:30am NNE 17 21 - - - - - - - 16.8 1013.3 0.0
03/09:00am NNE 15 17 - - - - - - - 16.9 1013.7 0.0
03/08:30am NNE 14 16 - - - - - - - 16.9 1013.9 0.0
03/08:00am NNE 17 19 - - - - - - - 17.1 1014.0 0.0
03/07:30am NNE 19 22 - - - - - - - 17.5 1013.7 0.0
03/07:00am NNE 19 22 - - - - - - - 17.4 1013.6 0.0
03/06:30am NNE 17 21 - - - - - - - 17.1 1013.8 0.0
03/06:00am NNE 15 17 - - - - - - - 16.7 1013.5 0.0
03/05:30am NE 16 21 - - - - - - - 17.0 1013.3 0.0
03/05:00am NE 16 20 - - - - - - - 16.7 1013.5 0.0
03/04:30am NE 16 19 - - - - - - - 16.6 1013.7 0.0
03/04:00am NE 17 21 - - - - - - - 17.0 1014.1 0.0
03/03:30am NE 16 19 - - - - - - - 17.1 1014.2 0.0
03/03:00am NNE 16 19 - - - - - - - 17.1 1014.5 0.0
03/02:30am NE 15 18 - - - - - - - 16.6 1014.8 0.0
03/02:00am NNE 17 19 - - - - - - - 16.8 1015.2 0.0
03/01:30am NNE 16 19 - - - - - - - 16.6 1015.4 0.0
03/01:00am NNE 16 20 - - - - - - - 16.7 1015.6 0.0
03/12:30am NNE 17 20 - - - - - - - 16.7 1015.8 0.0
03/12:00am NNE 17 21 - - - - - - - 16.8 1015.9 0.0
 
Date/Time
EST
Wind Sea
Height
m
Swell Vis
km
Cloud Weather Temp
°C
Press
MSL
hPa
Rain since
9am
mm
Dir  Spd
kts
Gust
kts
Height
m
Period
s
Dir
02/11:30pm NNE 18 21 - - - - - - - 16.9 1016.2 0.0
02/11:00pm NNE 16 19 - - - - - - - 16.7 1016.5 0.0
02/10:30pm NNE 16 19 - - - - - - - 17.0 1016.8 0.0
02/10:00pm NE 18 23 - - - - - - - 16.9 1017.0 0.0
02/09:30pm NNE 16 19 - - - - - - - 16.8 1017.1 0.0
02/09:00pm NNE 16 18 - - - - - - - 16.7 1017.1 0.0
02/08:30pm NE 15 18 - - - - - - - 16.9 1017.2 0.0
02/08:00pm NNE 13 16 - - - - - - - 16.4 1017.3 0.0
02/07:30pm NNE 13 15 - - - - - - - 16.6 1017.5 0.0
02/07:00pm NNE 13 15 - - - - - - - 16.6 1017.6 0.0
02/06:30pm NNE 13 15 - - - - - - - 17.0 1017.4 0.0
02/06:00pm NNE 13 15 - - - - - - - 16.8 1017.1 0.0
02/05:30pm NNE 13 15 - - - - - - - 16.8 1017.1 0.0
02/05:00pm NNE 13 15 - - - - - - - 17.4 1017.0 0.0
02/04:30pm NNE 13 15 - - - - - - - 17.7 1017.0 0.0
02/04:00pm NNE 12 16 - - - - - - - 17.9 1017.2 0.0
02/03:30pm NNE 12 15 - - - - - - - 18.4 1017.2 0.0
02/03:00pm NNE 13 16 - - - - - - - 18.3 1017.4 0.0
02/02:30pm NNE 11 14 - - - - - - - 18.3 1017.5 0.0
02/02:00pm NNE 12 15 - - - - - - - 18.5 1017.5 0.0
02/01:30pm NNE 12 15 - - - - - - - 19.7 1018.0 0.0
02/01:00pm NNE 11 13 - - - - - - - 20.5 1018.4 0.0
02/12:30pm NNE 11 13 - - - - - - - 19.8 1018.9 0.0
02/12:00pm NNE 11 14 - - - - - - - 18.4 1019.3 0.0
02/11:30am NNE 10 13 - - - - - - - 17.9 1019.7 0.0
02/11:00am NNE 11 14 - - - - - - - 18.3 1020.1 0.0
02/10:30am NE 11 14 - - - - - - - 18.0 1020.3 0.0
02/10:00am NE 11 14 - - - - - - - 18.0 1020.5 0.0
02/09:30am NNE 12 15 - - - - - - - 17.6 1020.7 0.0
02/09:00am N 15 17 - - - - - - - 18.9 1020.6 0.0
02/08:30am NNE 13 15 - - - - - - - 17.0 1020.6 0.0
02/08:00am NNE 13 15 - - - - - - - 16.7 1020.5 0.0
02/07:30am NNE 13 14 - - - - - - - 16.3 1020.4 0.0
02/07:00am NNE 11 13 - - - - - - - 15.9 1020.4 0.0
02/06:30am NNE 12 14 - - - - - - - 15.9 1020.4 0.0
02/06:00am NNE 13 15 - - - - - - - 16.0 1020.3 0.0
02/05:30am NNE 11 13 - - - - - - - 15.5 1020.3 0.0
02/05:00am NNE 9 11 - - - - - - - 15.4 1020.2 0.0
02/04:30am NE 10 11 - - - - - - - 15.5 1020.2 0.0
02/04:00am NE 12 15 - - - - - - - 15.8 1020.2 0.0
02/03:30am NE 12 16 - - - - - - - 16.2 1020.4 0.0
02/03:00am NE 10 13 - - - - - - - 16.0 1020.7 0.0
02/02:30am NE 10 13 - - - - - - - 16.1 1021.0 0.0
02/02:00am NE 11 12 - - - - - - - 15.9 1021.4 0.0
02/01:30am NE 11 13 - - - - - - - 16.0 1021.6 0.0
02/01:00am NE 12 15 - - - - - - - 16.0 1022.1 0.0
02/12:30am NNE 14 16 - - - - - - - 16.2 1022.4 0.0
02/12:00am NNE 14 16 - - - - - - - 16.1 1022.6 0.0
 
Date/Time
EST
Wind Sea
Height
m
Swell Vis
km
Cloud Weather Temp
°C
Press
MSL
hPa
Rain since
9am
mm
Dir  Spd
kts
Gust
kts
Height
m
Period
s
Dir
01/11:30pm NNE 15 16 - - - - - - - 16.1 1022.9 0.0
01/11:00pm NNE 16 17 - - - - - - - 16.1 1023.2 0.0
01/10:30pm NNE 14 18 - - - - - - - 16.0 1023.4 0.0
01/10:00pm NE 15 18 - - - - - - - 16.4 1023.5 0.0
01/09:30pm NE 13 16 - - - - - - - 15.8 1023.4 0.0
01/09:00pm NE 13 15 - - - - - - - 15.8 1023.4 0.0
01/08:30pm NE 11 13 - - - - - - - 15.8 1023.4 0.0
01/08:00pm NE 12 16 - - - - - - - 16.3 1023.5 0.0

Other formats

Comma delimited format used in spreadsheet applications
http://www.bom.gov.au/fwo/IDV60701/IDV60701.94949.axf

JavaScript Object Notation format (JSON) in row-major order
http://www.bom.gov.au/fwo/IDV60701/IDV60701.94949.json

Data quality

Most of these data are generated automatically and are frequently updated. Quality checks on data are not normally performed. It is possible for incorrect values to appear. Refer to information at About Latest Weather Observations and please check the disclaimer before using these data.